Pagrindinis puslapis
METAR-TAF:

METAR-TAF

Oro uostai :

Salluit, Kvebekas, Kanada

platuma: 62-11N, ilguma: 075-40W, Aukštis: 226 m

Dabartinis oras

Ataskaita buvo paskelbta 14 minutes, ne 14:00 UTC
Vėjas 2 kt iš Vakarų
Temperatūra -32°C
Drėgmė 67%
Slėgis 1003 hPa
Matomumas: 9.7 km
Mažai debesys ne aukštis 1000 ft
ledo kristalai, migla

METAR: CYZG 191400Z 26002KT 6SM IC HZ FEW010 M32/M36 A2962 RMK HZ3ST2 SLP071

Laikas: 09:14 (14:14 UTC)

Prognozė

Ataskaita buvo paskelbta 19 valandos ir 4 minutes, ne 19:10 UTC
Prognozė galioja nuo 18 metu 19 UTC su 18 metu 22 UTC
Vėjas 18 kt iš Pietų/Pietvakarių
Matomumas: 10 km
Išsisklaidę debesys ne aukštis 2000 ft
Su prošvaistėmis ne aukštis 3000 ft
Laikinai
nuo 18 metu 19 UTC su 18 metu 22 UTC
Matomumas: 6.4 km
Su prošvaistėmis ne aukštis 2000 ft
Apsiniaukę ne aukštis 3000 ft
sniegas, Sniego pustymas

TAF: CYZG 181910Z 1819/1822 21018KT P6SM SCT020 BKN030 TEMPO 1819/1822 4SM -SN BLSN BKN020 OVC030 RMK NXT FCST WILL BE ISSUED AT 191445Z

Orai ataskaitas ir orų prognozės (METAR, TAF).

turimą stotys yra geltonos ir raudonos taškus žemėlapyje.

Perkelti pele per norėdami pamatyti stoties vardą.

Tada spustelėkite, norėdami matyti oro stebėjimo ir prognozės.

Norėdami pakeisti žemėlapį: spustelėkite ant žalios mygtukų su juodo kryžiaus žemyn,; žalią mygtuką su brūkšneliu, jei norite nutolinti; arba žalių rodyklių gretimoms žemėlapius.


METAR-TAF: